Portada
METAR-TAF:

METAR-TAF

Aeroports :

Melbourne, Austràlia

latitud: 37-40-24S, longitud: 144-50-36E, altitud: 132 m

Observació

L'informe es va fer fa 33 minuts, a les 20:00 UTC
Vent 8 kt del Oest
Temperatura 12°C
Humitat 76%
Pressió 1016 hPa
Visibilitat 10 km o més
Escasses núvols a una alçada de 2000 ft
Cel ennuvolat a una alçada de 3000 ft

METAR: YMML 132000Z 28008KT 9999 FEW020 BKN030 12/08 Q1016

Hora: 07:33 (20:33 UTC)

Pronòstic

L'informe es va fer fa 3 hores i 32 minuts, a les 17:01 UTC
Pronòstic vàlid del 13 a les 18 UTC al 15 a les 00 UTC
Vent 10 kt del Oest/Sud-Oest
Visibilitat 10 km o més
Núvols disperses a una alçada de 2000 ft
Cel ennuvolat a una alçada de 3500 ft
A partir de les 14 a les 0200 UTC
Vent 12 kt del Oest/Nord-Oest
Visibilitat 10 km o més
Escasses núvols a una alçada de 3000 ft
Cel ennuvolat a una alçada de 4000 ft

TAF: YMML 131701Z 1318/1500 25010KT 9999 SCT020 BKN035 FM140200 29012KT 9999 FEW030 BKN040

Observacions i pronòstics meteorològics de més de 4000 aeroports (METAR i TAF).

Les estacions disponibles són els punts grocs i vermells al mapa.

Posi el ratolí al punt desitjat per veure el nom de l'estació.

Feu clic per veure les observacions i els pronòstics meteorològics.

Per canviar el mapa: feu clic els botons verds amb una creu de color negre per apropar; al botó verd amb un guió per allunyar la imatge; o en les fletxes verdes per a mapes adjacents.


METAR-TAF: